Flight Track Log - Related Links

Times and Time Zones

All times are in EDT time to prevent confusion due to time zone crossing. See the SWA975 flight status page for this flight to view local times or setup timezone preferences in your user account.

Time Position Orientation Groundspeed Altitude Reporting Facility
EDT Latitude Longitude Course Direction KTS MPH feet Rate Location/Type
Sat 20:52:22 26.0750 -80.1297 85° East 178 205 1,200  Level Miami Center
Sat 20:53:22 26.0808 -80.0606 85° East 254 292 2,600 2,364 Climbing Miami Center
Sat 20:55:07 26.1131 -79.9203 76° East 313 360 7,700 2,873 Climbing Miami Center
Sat 20:56:07 26.1606 -79.8428 56° Northeast 293 337 10,500 2,350 Climbing Miami Center
Sat 20:57:07 26.2125 -79.7514 58° Northeast 313 360 12,400 2,350 Climbing Miami Center
Sat 20:58:07 26.2772 -79.6533 54° Northeast 351 404 15,200 2,400 Climbing Miami Center
Sat 20:59:07 26.3436 -79.5692 49° Northeast 382 440 17,200 2,100 Climbing Miami Center
Sat 21:00:07 26.4492 -79.5042 29° Northeast 388 447 19,400 2,050 Climbing Miami Center
Sat 21:01:07 26.5442 -79.4506 27° Northeast 410 472 21,300 2,000 Climbing Miami Center
Sat 21:02:07 26.6600 -79.3858 27° Northeast 417 480 23,400 1,600 Climbing Miami Center
Sat 21:03:07 26.7592 -79.3275 28° Northeast 425 489 24,500 1,450 Climbing Miami Center
Sat 21:04:07 26.8731 -79.2647 26° Northeast 441 507 26,300 1,800 Climbing Miami Center
Sat 21:05:07 26.9828 -79.1922 30° Northeast 446 513 28,100 1,700 Climbing Miami Center
Sat 21:06:07 27.1114 -79.1250 25° Northeast 458 527 29,700 1,500 Climbing Miami Center
Sat 21:07:07 27.2167 -79.0708 25° Northeast 453 521 31,100 1,200 Climbing Miami Center
Sat 21:08:07 27.3403 -79.0475 10° North 442 509 32,100 1,100 Climbing Miami Center
Sat 21:09:07 27.4783 -79.0244 North 452 520 33,300 1,150 Climbing Miami Center
Sat 21:10:07 27.6039 -79.0056 North 457 526 34,400 950 Climbing Miami Center
Sat 21:11:07 27.7317 -78.9844 North 457 526 35,200 850 Climbing Miami Center
Sat 21:12:07 27.8425 -78.9678 North 450 518 36,100 750 Climbing Miami Center
Sat 21:13:07 27.9661 -78.9489 North 444 511 36,700 450 Climbing Miami Center
Sat 21:14:07 28.0917 -78.9278 North 450 518 37,000 150 Climbing Miami Center
Sat 21:15:07 28.2150 -78.9064 North 450 518 37,000  Level Miami Center
Sat 21:16:07 28.3447 -78.8875 North 455 524 37,000  Level Miami Center
Sat 21:17:07 28.4703 -78.8686 North 449 517 37,000  Level Miami Center
Sat 21:18:07 28.5978 -78.8497 North 454 522 37,000  Level Miami Center
Sat 21:19:07 28.7253 -78.8306 North 454 522 37,000  Level Miami Center
Sat 21:20:07 28.8508 -78.8092 North 454 522 37,000  Level Miami Center
Sat 21:21:07 28.9764 -78.7900 North 454 522 37,000  Level Miami Center
Sat 21:22:07 29.0997 -78.7658 10° North 449 517 37,000  Level Miami Center
Sat 21:23:07 29.2253 -78.7467 North 449 517 37,000  Level Miami Center
Sat 21:24:07 29.3506 -78.7297 North 444 511 37,000  Level Miami Center
Sat 21:25:07 29.4739 -78.7106 North 439 505 37,000  Level Miami Center
Sat 21:26:07 29.5992 -78.6911 North 448 516 37,000  Level Miami Center
Sat 21:27:07 29.7186 -78.6669 10° North 448 516 37,000  Level Miami Center
Sat 21:28:51 29.9428 -78.6311 North 443 510 37,000  Level Jacksonville Center
Sat 21:29:51 30.0694 -78.6136 North 442 509 37,000  Level Jacksonville Center
Sat 21:30:51 30.1917 -78.5889 10° North 447 514 37,000  Level Jacksonville Center
Sat 21:31:51 30.3206 -78.5686 North 447 514 37,000  Level Jacksonville Center
Sat 21:32:51 30.4494 -78.5508 North 466 536 37,000  Level Jacksonville Center
Sat 21:33:51 30.5739 -78.5306 North 471 542 37,000  Level Jacksonville Center
Sat 21:34:51 30.6961 -78.5081 North 451 519 37,000  Level Jacksonville Center
Sat 21:35:51 30.8186 -78.4856 North 443 510 37,000  Level Jacksonville Center
Sat 21:36:52 30.9411 -78.4628 North 458 527 37,000  Level Jacksonville Center
Sat 21:37:51 31.0614 -78.4450 North 456 525 37,000  Level Jacksonville Center
Sat 21:38:51 31.1839 -78.4272 North 451 519 37,000  Level Jacksonville Center
Sat 21:39:51 31.3086 -78.4067 North 446 513 37,000  Level Jacksonville Center
Sat 21:40:51 31.4350 -78.3833 North 446 513 37,000  Level Jacksonville Center
Sat 21:41:52 31.5575 -78.3653 North 446 513 37,000  Level Jacksonville Center
Sat 21:42:52 31.6842 -78.3444 North 451 519 37,000  Level Jacksonville Center
Sat 21:43:52 31.8106 -78.3211 North 451 519 37,000  Level Jacksonville Center
Sat 21:44:52 31.9392 -78.3003 North 457 526 37,000  Level Jacksonville Center
Sat 21:45:51 32.0678 -78.2767 North 463 533 37,000  Level Jacksonville Center
Sat 21:46:51 32.2006 -78.2528 North 463 533 37,000  Level Jacksonville Center
Sat 21:47:51 32.3292 -78.2314 North 463 533 37,000  Level Jacksonville Center
Sat 21:48:51 32.4578 -78.2075 North 463 533 37,000  Level Jacksonville Center
Sat 21:49:51 32.5883 -78.1861 North 463 533 37,000  Level Jacksonville Center
Sat 21:50:52 32.7189 -78.1594 10° North 468 539 37,000  Level Jacksonville Center
Sat 21:51:51 32.8494 -78.1378 North 468 539 37,000  Level Jacksonville Center
Sat 21:52:52 32.9803 -78.1161 North 468 539 37,000  Level Jacksonville Center
Sat 21:53:52 33.1128 -78.0942 North 468 539 37,000  Level Jacksonville Center
Sat 21:54:51 33.2436 -78.0722 North 468 539 37,000  Level Jacksonville Center
Sat 21:55:51 33.3719 -78.0503 North 468 539 37,000  Level Jacksonville Center
Sat 21:56:11 33.4167 -78.0419 North 475 547 37,000  Level Washington Center
Sat 21:57:11 33.5464 -78.0183 North 480 552 37,000  Level Washington Center
Sat 21:58:11 33.6783 -77.9997 North 480 552 37,000  Level Washington Center
Sat 21:59:11 33.8200 -78.0089 357° North 469 540 37,000  Level Washington Center
Sat 22:00:11 33.9386 -78.0175 357° North 461 531 37,000  Level Washington Center
Sat 22:01:11 34.0700 -78.0261 357° North 466 536 37,000  Level Washington Center
Sat 22:02:11 34.2011 -78.0350 357° North 466 536 37,000  Level Washington Center
Sat 22:03:11 34.3450 -78.0469 356° North 466 536 37,000  Level Washington Center
Sat 22:04:11 34.4761 -78.0558 357° North 466 536 37,000  Level Washington Center
Sat 22:05:11 34.6053 -78.0647 357° North 466 536 37,000  Level Washington Center
Sat 22:06:11 34.7344 -78.0764 356° North 461 531 37,000  Level Washington Center
Sat 22:07:11 34.8511 -78.0800 359° North 461 531 37,000  Level Washington Center
Sat 22:08:11 34.9783 -78.0864 358° North 461 531 37,000  Level Washington Center
Sat 22:09:11 35.1094 -78.0981 356° North 461 531 37,000  Level Washington Center
Sat 22:10:11 35.2367 -78.1069 357° North 461 531 37,000  Level Washington Center
Sat 22:11:11 35.3700 -78.1189 356° North 461 531 37,000  Level Washington Center
Sat 22:12:11 35.4969 -78.1253 358° North 461 531 37,000  Level Washington Center
Sat 22:13:11 35.6261 -78.1372 356° North 461 531 37,000  Level Washington Center
Sat 22:14:11 35.7594 -78.1467 357° North 461 531 37,000  Level Washington Center
Sat 22:15:11 35.8908 -78.1558 357° North 461 531 37,000  Level Washington Center
Sat 22:16:11 36.0219 -78.1678 356° North 461 531 37,000  Level Washington Center
Sat 22:17:11 36.1511 -78.1772 357° North 461 531 37,000  Level Washington Center
Sat 22:18:11 36.2969 -78.1872 357° North 467 537 37,000  Level Washington Center
Sat 22:19:11 36.4261 -78.1967 357° North 467 537 37,000  Level Washington Center
Sat 22:20:11 36.5553 -78.2061 357° North 467 537 37,000  Level Washington Center
Sat 22:21:11 36.6844 -78.2183 356° North 461 531 37,000  Level Washington Center
Sat 22:22:11 36.8136 -78.2278 357° North 461 531 37,000  Level Washington Center
Sat 22:23:11 36.9428 -78.2372 357° North 461 531 37,000  Level Washington Center
Sat 22:24:11 37.0614 -78.2414 358° North 461 531 37,000  Level Washington Center
Sat 22:25:11 37.1947 -78.2514 357° North 466 536 37,000  Level Washington Center
Sat 22:26:11 37.3406 -78.2642 356° North 471 542 37,000  Level Washington Center
Sat 22:27:11 37.4717 -78.2739 357° North 471 542 37,000  Level Washington Center
Sat 22:28:11 37.6008 -78.2864 356° North 476 548 37,000  Level Washington Center
Sat 22:29:11 37.7319 -78.2936 358° North 476 548 37,000  Level Washington Center
Sat 22:30:11 37.8506 -78.3058 355° North 476 548 37,000  Level Washington Center
Sat 22:31:11 37.9839 -78.3158 357° North 476 548 37,000  Level Washington Center
Sat 22:32:11 38.1214 -78.3261 357° North 469 540 37,000  Level Washington Center
Sat 22:33:11 38.2544 -78.3364 357° North 464 534 37,000  Level Washington Center
Sat 22:34:11 38.3856 -78.3492 356° North 464 534 37,000  Level Washington Center
Sat 22:35:11 38.5189 -78.3594 357° North 469 540 37,000  Level Washington Center
Sat 22:36:11 38.6542 -78.3697 357° North 475 547 37,000  Level Washington Center
Sat 22:37:11 38.7831 -78.3800 356° North 475 547 37,000  Level Washington Center
Sat 22:39:23 39.0728 -78.4042 356° North 480 552 37,000  Level Cleveland Center
Sat 22:40:23 39.2064 -78.4161 356° North 480 552 37,000  Level Cleveland Center
Sat 22:41:23 39.3381 -78.4253 357° North 480 552 37,000  Level Cleveland Center
Sat 22:42:23 39.4653 -78.4375 356° North 473 544 37,000  Level Cleveland Center
Sat 22:43:23 39.5989 -78.4494 356° North 473 544 37,000  Level Cleveland Center
Sat 22:44:23 39.7283 -78.4561 358° North 473 544 37,000  Level Cleveland Center
Sat 22:45:23 39.8536 -78.4656 357° North 466 536 37,000  Level Cleveland Center
Sat 22:46:23 39.9853 -78.4778 356° North 461 531 37,000  Level Cleveland Center
Sat 22:47:23 40.1167 -78.4872 357° North 467 537 37,000  Level Cleveland Center
Sat 22:48:23 40.2442 -78.4994 356° North 462 532 37,000  Level Cleveland Center
Sat 22:49:23 40.3694 -78.5092 357° North 462 532 37,000  Level Cleveland Center
Sat 22:50:23 40.4967 -78.5189 357° North 462 532 37,000  Level Cleveland Center
Sat 22:51:23 40.6283 -78.5314 356° North 462 532 37,000  Level Cleveland Center
Sat 22:52:23 40.7556 -78.5411 357° North 462 532 37,000  Level Cleveland Center
Sat 22:53:23 40.8725 -78.5511 356° North 462 532 37,000 -800 Level Cleveland Center
Sat 22:54:23 40.9978 -78.5611 357° North 462 532 35,400 -1,850 Descending Cleveland Center
Sat 22:55:23 41.1189 -78.5711 356° North 451 519 33,300 -2,050 Descending Cleveland Center
Sat 22:56:23 41.2422 -78.5811 357° North 446 513 31,300 -2,000 Descending Cleveland Center
Sat 22:57:23 41.3569 -78.5942 355° North 425 489 29,300 -2,000 Descending Cleveland Center
Sat 22:58:23 41.4633 -78.6019 357° North 403 464 27,300 -1,950 Descending Cleveland Center
Sat 22:59:23 41.5700 -78.6097 357° North 388 447 25,400 -1,650 Descending Cleveland Center
Sat 23:00:23 41.6744 -78.6206 356° North 383 441 24,000 -1,250 Descending Cleveland Center
Sat 23:01:23 41.7725 -78.6286 356° North 369 425 22,900 -1,400 Descending Cleveland Center
Sat 23:02:23 41.8664 -78.6397 355° North 347 399 21,200 -1,700 Descending Cleveland Center
Sat 23:03:23 41.9603 -78.6481 356° North 337 388 19,500 -1,650 Descending Cleveland Center
Sat 23:04:23 42.0500 -78.6536 357° North 332 382 17,900 -1,600 Descending Cleveland Center
Sat 23:05:23 42.1400 -78.6650 355° North 326 375 16,300 -1,700 Descending Cleveland Center
Sat 23:06:23 42.2317 -78.6678 359° North 321 369 14,500 -1,600 Descending Cleveland Center
Sat 23:07:23 42.3153 -78.6767 356° North 309 356 13,100 -1,700 Descending Cleveland Center
Sat 23:08:23 42.4008 -78.6825 357° North 303 349 11,100 -1,700 Descending Cleveland Center
Sat 23:09:23 42.4819 -78.6772 North 298 343 9,700 -1,350 Descending Cleveland Center
Sat 23:10:23 42.5628 -78.6408 18° North 293 337 8,400 -1,200 Descending Cleveland Center
Sat 23:11:23 42.6311 -78.6161 15° North 288 331 7,300 -1,200 Descending Cleveland Center
Sat 23:12:23 42.7056 -78.5856 17° North 280 322 6,000 -1,400 Descending Cleveland Center
Sat 23:13:23 42.7842 -78.5578 15° North 266 306 4,500 -1,000 Descending Cleveland Center
Sat 23:14:23 42.8525 -78.5300 17° North 259 298 4,000 -550 Descending Cleveland Center
Sat 23:15:23 42.9169 -78.5136 11° North 247 284 3,400 -500 Descending Cleveland Center
Sat 23:17:47 43.0500 -78.5667 344° North 172 198 2,300 -324 Descending Buffalo TRACON
Sat 23:18:47 43.0167 -78.6167 228° Southwest 138 159 2,300 -150 Level Buffalo TRACON
Sat 23:19:47 43.0000 -78.6500 236° Southwest 148 170 2,000 -500 Descending Buffalo TRACON
Sat 23:20:47 42.9667 -78.6833 216° Southwest 131 151 1,300 -700 Descending Buffalo TRACON

Login

Don't have an account? Register now (free) for customized features, flight alerts, and more!